Terminal Aerodrome Forecast
Issued by NWS Memphis, TN

Home | Current Version | Previous Version | Text Only | Print | Product List | Glossary On
Versions: 1 2 3 4 5 6 7 8 9 10 11 12 13 14 15 16 17 18 19 20 21 22 23
000
FTUS44 KMEG 282320
TAFMEM
TAF
KMEM 282320Z 2900/2924 26007KT P6SM FEW050
     FM290100 20003KT P6SM SKC
     FM291500 31007KT P6SM SCT045
     FM291800 33007KT P6SM VCTS BKN045CB=

USA.gov is the U.S. government's official web portal to all federal, state and local government web resources and services.